createdAt,value
2019-01-11T00:00:15.758Z,-3.40
2019-01-11T00:02:46.563Z,-3.40
2019-01-11T00:05:17.340Z,-3.31
2019-01-11T00:07:48.137Z,-3.31
2019-01-11T00:10:20.701Z,-3.42
2019-01-11T00:12:51.609Z,-3.40
2019-01-11T00:15:22.441Z,-3.47
2019-01-11T00:17:53.231Z,-3.48
2019-01-11T00:20:24.041Z,-3.49
2019-01-11T00:22:54.815Z,-3.50
2019-01-11T00:25:25.610Z,-3.53
2019-01-11T00:27:56.465Z,-3.48
2019-01-11T00:30:27.331Z,-3.45
2019-01-11T00:32:58.146Z,-3.52
2019-01-11T00:35:28.994Z,-3.56
2019-01-11T00:37:59.931Z,-3.55
2019-01-11T00:40:31.121Z,-3.53
2019-01-11T00:43:01.996Z,-3.57
2019-01-11T00:45:32.752Z,-3.53
2019-01-11T00:48:03.625Z,-3.52
2019-01-11T00:50:34.427Z,-3.45
2019-01-11T00:53:05.468Z,-3.40
2019-01-11T00:55:36.345Z,-3.49
2019-01-11T00:58:07.132Z,-3.48
2019-01-11T01:00:38.101Z,-3.46
2019-01-11T01:03:08.971Z,-3.55
2019-01-11T01:05:39.893Z,-3.59
2019-01-11T01:08:13.720Z,-3.57
2019-01-11T01:10:45.672Z,-3.58
2019-01-11T01:13:16.502Z,-3.46
2019-01-11T01:15:47.334Z,-3.37
2019-01-11T01:18:18.239Z,-3.29
2019-01-11T01:20:49.099Z,-3.17
2019-01-11T01:23:20.056Z,-2.98
2019-01-11T01:25:50.935Z,-2.87
2019-01-11T01:28:21.792Z,-2.73
2019-01-11T01:30:52.624Z,-2.66
2019-01-11T01:33:23.486Z,-2.57
2019-01-11T01:35:54.234Z,-2.46
2019-01-11T01:38:25.324Z,-2.41
2019-01-11T01:40:58.858Z,-2.32
2019-01-11T01:43:29.656Z,-2.26
2019-01-11T01:46:00.513Z,-2.24
2019-01-11T01:48:31.307Z,-2.18
2019-01-11T01:51:02.202Z,-2.14
2019-01-11T01:53:33.034Z,-2.08
2019-01-11T01:56:03.923Z,-2.04
2019-01-11T01:58:34.676Z,-1.96
2019-01-11T02:01:05.608Z,-1.93
2019-01-11T02:03:36.408Z,-1.89
2019-01-11T02:06:07.202Z,-1.80
2019-01-11T02:08:37.963Z,-1.74
2019-01-11T02:11:08.780Z,-1.66
2019-01-11T02:13:39.693Z,-1.61
2019-01-11T02:16:10.593Z,-1.59
2019-01-11T02:18:41.496Z,-1.54
2019-01-11T02:21:12.368Z,-1.47
2019-01-11T02:23:43.419Z,-1.42
2019-01-11T02:26:14.348Z,-1.42
2019-01-11T02:28:45.242Z,-1.41
2019-01-11T02:31:17.686Z,-1.36
2019-01-11T02:33:50.608Z,-1.33
2019-01-11T02:36:21.343Z,-1.29
2019-01-11T02:38:52.150Z,-1.26
2019-01-11T02:41:22.940Z,-1.22
2019-01-11T02:43:53.708Z,-1.15
2019-01-11T02:46:24.520Z,-1.15
2019-01-11T02:48:55.714Z,-1.11
2019-01-11T02:51:26.470Z,-1.09
2019-01-11T02:53:57.464Z,-1.09
2019-01-11T02:56:28.294Z,-1.10
2019-01-11T02:58:59.155Z,-1.07
2019-01-11T03:01:32.728Z,-1.05
2019-01-11T03:04:03.655Z,-1.03
2019-01-11T03:06:34.483Z,-1.00
2019-01-11T03:09:09.257Z,-0.95
2019-01-11T03:11:42.271Z,-0.87
2019-01-11T03:14:13.180Z,-0.83
2019-01-11T03:16:43.940Z,-0.79
2019-01-11T03:19:14.885Z,-0.71
2019-01-11T03:21:45.705Z,-0.67
2019-01-11T03:24:16.719Z,-0.60
2019-01-11T03:26:47.611Z,-0.60
2019-01-11T03:29:21.204Z,-0.59
2019-01-11T03:31:52.100Z,-0.58
2019-01-11T03:34:22.989Z,-0.55
2019-01-11T03:36:56.299Z,-0.57
2019-01-11T03:39:27.207Z,-0.53
2019-01-11T03:42:22.777Z,-0.63
2019-01-11T03:44:56.785Z,-0.68
2019-01-11T03:47:29.237Z,-0.70
2019-01-11T03:50:00.195Z,-0.73
2019-01-11T03:52:33.383Z,-0.76
2019-01-11T03:55:04.796Z,-0.74
2019-01-11T03:57:37.108Z,-0.72
2019-01-11T04:00:11.943Z,-0.70
2019-01-11T04:02:43.031Z,-0.68
2019-01-11T04:05:14.713Z,-0.67
2019-01-11T04:07:45.727Z,-0.64
2019-01-11T04:10:25.180Z,-0.65
2019-01-11T04:12:58.330Z,-0.59
2019-01-11T04:15:32.309Z,-0.48
2019-01-11T04:18:40.253Z,-0.45
2019-01-11T04:21:11.315Z,-0.46
2019-01-11T04:23:47.881Z,-0.47
2019-01-11T04:26:22.515Z,-0.41
2019-01-11T04:28:53.425Z,-0.38
2019-01-11T04:31:27.410Z,-0.37
2019-01-11T04:34:01.626Z,-0.35
2019-01-11T04:36:32.752Z,-0.34
2019-01-11T04:39:04.163Z,-0.31
2019-01-11T04:41:35.660Z,-0.29
2019-01-11T04:44:07.252Z,-0.32
2019-01-11T04:46:38.515Z,-0.28
2019-01-11T04:49:09.419Z,-0.25
2019-01-11T04:51:40.323Z,-0.14
2019-01-11T04:54:11.198Z,-0.17
2019-01-11T04:56:42.404Z,-0.17
2019-01-11T04:59:13.380Z,-0.13
2019-01-11T05:01:44.265Z,-0.13
2019-01-11T05:04:15.158Z,-0.06
2019-01-11T05:06:46.198Z,-0.08
2019-01-11T05:09:16.970Z,0.07
2019-01-11T05:11:47.818Z,0.04
2019-01-11T05:14:18.674Z,0.03
2019-01-11T05:16:50.507Z,0.03
2019-01-11T05:19:21.465Z,0.09
2019-01-11T05:21:52.322Z,0.10
2019-01-11T05:24:24.374Z,0.11
2019-01-11T05:26:58.534Z,0.04
2019-01-11T05:29:29.331Z,0.07
2019-01-11T05:32:00.126Z,0.14
2019-01-11T05:34:31.188Z,0.06
2019-01-11T05:49:24.494Z,0.19
2019-01-11T05:51:55.280Z,0.13
2019-01-11T05:54:26.102Z,0.12
2019-01-11T05:56:56.951Z,0.13
2019-01-11T05:59:27.750Z,0.16
2019-01-11T06:01:58.886Z,0.13
2019-01-11T06:04:45.704Z,0.17
2019-01-11T06:07:24.410Z,0.22
2019-01-11T06:09:55.150Z,0.14
2019-01-11T06:12:25.976Z,0.13
2019-01-11T06:14:57.384Z,0.15
2019-01-11T06:17:28.161Z,0.16
2019-01-11T06:19:58.943Z,0.18
2019-01-11T06:22:29.730Z,0.21
2019-01-11T06:25:00.566Z,0.24
2019-01-11T06:27:31.446Z,0.28
2019-01-11T06:30:02.198Z,0.34
2019-01-11T06:32:33.052Z,0.28
2019-01-11T06:35:03.870Z,0.25
2019-01-11T06:37:34.658Z,0.26
2019-01-11T06:40:08.302Z,0.29
2019-01-11T06:42:39.138Z,0.27
2019-01-11T06:45:12.116Z,0.30
2019-01-11T06:47:43.210Z,0.35
2019-01-11T06:50:15.218Z,0.35
2019-01-11T06:52:46.122Z,0.32
2019-01-11T06:55:16.909Z,0.34
2019-01-11T06:57:48.337Z,0.36
2019-01-11T07:00:19.609Z,0.43
2019-01-11T07:02:50.401Z,0.40
2019-01-11T07:05:21.252Z,0.43
2019-01-11T07:07:52.065Z,0.43
2019-01-11T07:10:23.991Z,0.46
2019-01-11T07:12:54.814Z,0.49
2019-01-11T07:15:25.773Z,0.52
2019-01-11T07:17:56.589Z,0.49
2019-01-11T07:20:27.505Z,0.54
2019-01-11T07:22:58.413Z,0.58
2019-01-11T07:25:29.339Z,0.62
2019-01-11T07:28:02.335Z,0.64
2019-01-11T07:31:04.209Z,0.59
2019-01-11T07:33:35.805Z,0.57
2019-01-11T07:36:41.284Z,0.62
2019-01-11T07:39:25.780Z,0.65
2019-01-11T07:41:56.667Z,0.71
2019-01-11T07:44:27.813Z,0.70
2019-01-11T07:46:59.577Z,0.69
2019-01-11T07:49:30.589Z,0.68
2019-01-11T07:52:01.396Z,0.65
2019-01-11T07:54:32.261Z,0.61
2019-01-11T07:57:03.204Z,0.65
2019-01-11T07:59:34.041Z,0.66
2019-01-11T08:02:05.126Z,0.72
2019-01-11T08:04:35.975Z,0.67
2019-01-11T08:07:07.141Z,0.65
2019-01-11T08:09:37.954Z,0.67
2019-01-11T08:12:08.805Z,0.68
2019-01-11T08:14:39.655Z,0.64
2019-01-11T08:17:10.527Z,0.67
2019-01-11T08:19:41.477Z,0.64
2019-01-11T08:22:24.857Z,0.69
2019-01-11T08:25:02.681Z,0.64
2019-01-11T08:27:33.539Z,0.57
2019-01-11T08:30:05.893Z,0.55
2019-01-11T08:32:36.785Z,0.62
2019-01-11T08:35:09.929Z,0.60
2019-01-11T08:37:40.867Z,0.63
2019-01-11T08:40:12.301Z,0.59
2019-01-11T08:42:43.169Z,0.68
2019-01-11T08:45:14.706Z,0.78
2019-01-11T08:47:45.655Z,0.78
2019-01-11T08:50:19.741Z,0.72
2019-01-11T08:52:50.691Z,0.76
2019-01-11T08:55:21.843Z,0.67
2019-01-11T08:57:52.660Z,0.61
2019-01-11T09:00:23.532Z,0.74
2019-01-11T09:02:54.409Z,0.75
2019-01-11T09:05:25.240Z,0.65
2019-01-11T09:07:56.141Z,0.62
2019-01-11T09:10:26.929Z,0.76
2019-01-11T09:12:57.897Z,0.77
2019-01-11T09:15:28.773Z,0.68
2019-01-11T09:18:17.607Z,0.71
2019-01-11T09:20:48.452Z,0.67
2019-01-11T09:23:19.354Z,0.71
2019-01-11T09:25:50.151Z,0.76
2019-01-11T09:28:20.982Z,0.69
2019-01-11T09:30:51.808Z,0.81
2019-01-11T09:33:22.732Z,0.82
2019-01-11T09:35:53.745Z,0.80
2019-01-11T09:38:24.601Z,0.79
2019-01-11T09:40:55.484Z,0.75
2019-01-11T09:43:26.243Z,0.73
2019-01-11T09:45:58.240Z,0.84
2019-01-11T09:48:29.065Z,0.84
2019-01-11T09:50:59.988Z,0.77
2019-01-11T09:53:31.021Z,0.77
2019-01-11T09:56:01.933Z,0.86
2019-01-11T09:58:32.784Z,0.83
2019-01-11T10:01:03.744Z,0.84
2019-01-11T10:03:34.628Z,0.79
2019-01-11T10:06:06.088Z,0.75
2019-01-11T10:08:37.126Z,0.86
2019-01-11T10:11:07.980Z,0.93
2019-01-11T10:13:38.912Z,0.95
2019-01-11T10:16:09.868Z,1.05
2019-01-11T10:18:43.894Z,1.00
2019-01-11T10:21:15.439Z,0.99
2019-01-11T10:23:46.404Z,1.04
2019-01-11T10:26:17.756Z,1.04
2019-01-11T10:28:48.760Z,1.01
2019-01-11T10:31:19.636Z,0.94
2019-01-11T10:33:50.598Z,1.03
2019-01-11T10:36:21.512Z,0.91
2019-01-11T10:38:52.652Z,0.99
2019-01-11T10:41:23.651Z,1.07
2019-01-11T10:43:55.659Z,1.05
2019-01-11T10:46:40.743Z,1.10
2019-01-11T10:49:11.620Z,1.03
2019-01-11T10:51:42.664Z,1.00
2019-01-11T10:54:27.359Z,1.06
2019-01-11T10:56:58.307Z,1.12
2019-01-11T10:59:29.210Z,1.23
2019-01-11T11:02:00.070Z,1.21
2019-01-11T11:04:31.087Z,1.13
2019-01-11T11:07:02.158Z,1.16
2019-01-11T11:09:33.001Z,1.16
2019-01-11T11:12:03.890Z,1.22
2019-01-11T11:14:34.812Z,1.13
2019-01-11T11:17:06.325Z,1.11
2019-01-11T11:19:37.147Z,1.28
2019-01-11T11:22:08.056Z,1.23
2019-01-11T11:24:38.914Z,1.24
2019-01-11T11:27:10.319Z,1.33
2019-01-11T11:29:41.204Z,1.28
2019-01-11T11:32:13.359Z,1.28
2019-01-11T11:34:46.531Z,1.33
2019-01-11T11:37:19.211Z,1.36
2019-01-11T11:39:50.293Z,1.48
2019-01-11T11:42:21.109Z,1.50
2019-01-11T11:44:51.934Z,1.56
2019-01-11T11:47:22.869Z,1.68
2019-01-11T11:49:53.673Z,1.70
2019-01-11T11:52:24.545Z,1.61
2019-01-11T11:54:55.709Z,1.48
2019-01-11T11:57:26.519Z,1.63
2019-01-11T11:59:57.387Z,1.49
2019-01-11T12:02:28.276Z,1.62
2019-01-11T12:04:59.317Z,1.68
2019-01-11T12:07:30.283Z,1.80
2019-01-11T12:10:01.205Z,1.77
2019-01-11T12:12:32.164Z,1.87
2019-01-11T12:15:03.083Z,1.94
2019-01-11T12:17:33.954Z,1.95
2019-01-11T12:20:06.202Z,1.67
2019-01-11T12:22:37.085Z,1.85
2019-01-11T12:25:08.349Z,1.69
2019-01-11T12:27:45.067Z,1.64
2019-01-11T12:30:17.715Z,1.63
2019-01-11T12:32:52.424Z,1.61
2019-01-11T12:35:23.397Z,1.56
2019-01-11T12:37:54.321Z,1.64
2019-01-11T12:40:25.233Z,1.51
2019-01-11T12:42:56.058Z,1.44
2019-01-11T12:45:29.840Z,1.51
2019-01-11T12:48:02.130Z,1.50
2019-01-11T12:50:35.602Z,1.58
2019-01-11T12:53:06.487Z,1.58
2019-01-11T12:55:37.486Z,1.48
2019-01-11T12:58:13.399Z,1.47
2019-01-11T13:00:44.379Z,1.65
2019-01-11T13:03:18.019Z,1.70
2019-01-11T13:05:49.267Z,1.71
2019-01-11T13:08:20.150Z,1.74
2019-01-11T13:10:52.538Z,1.55
2019-01-11T13:13:23.402Z,1.56
2019-01-11T13:15:54.221Z,1.64
2019-01-11T13:18:25.173Z,1.51
2019-01-11T13:20:56.041Z,1.50
2019-01-11T13:23:26.886Z,1.56
2019-01-11T13:25:57.994Z,1.49
2019-01-11T13:28:29.802Z,1.41
2019-01-11T13:31:00.759Z,1.52
2019-01-11T13:33:31.723Z,1.65
2019-01-11T13:36:04.314Z,1.70
2019-01-11T13:38:35.144Z,1.62
2019-01-11T13:41:05.942Z,1.68
2019-01-11T13:43:36.914Z,1.54
2019-01-11T13:46:09.199Z,1.47
2019-01-11T13:48:40.176Z,1.53
2019-01-11T13:51:11.193Z,1.52
2019-01-11T13:53:44.886Z,1.60
2019-01-11T13:56:15.758Z,1.63
2019-01-11T13:58:46.638Z,1.65
2019-01-11T14:01:17.479Z,1.63
2019-01-11T14:03:48.342Z,1.69
2019-01-11T14:06:19.144Z,1.66
2019-01-11T14:08:50.054Z,1.71
2019-01-11T14:11:21.010Z,1.73
2019-01-11T14:13:51.806Z,1.67
2019-01-11T14:16:22.766Z,1.67
2019-01-11T14:18:53.698Z,1.69
2019-01-11T14:21:24.543Z,1.66
2019-01-11T14:23:55.350Z,1.64
2019-01-11T14:26:26.307Z,1.61
2019-01-11T14:28:57.313Z,1.60
2019-01-11T14:31:28.120Z,1.65
2019-01-11T14:33:58.978Z,1.63
2019-01-11T14:36:30.000Z,1.69
2019-01-11T14:39:00.942Z,1.70
2019-01-11T14:41:32.023Z,1.69
2019-01-11T14:44:03.130Z,1.71
2019-01-11T14:46:34.060Z,1.73
2019-01-11T14:49:04.839Z,1.71
2019-01-11T14:51:35.694Z,1.73
2019-01-11T14:54:06.663Z,1.80
2019-01-11T14:56:37.518Z,1.88
2019-01-11T14:59:08.918Z,1.82
2019-01-11T15:01:39.786Z,1.84
2019-01-11T15:04:10.691Z,1.89
2019-01-11T15:06:41.678Z,1.83
2019-01-11T15:09:12.553Z,1.83
2019-01-11T15:11:48.209Z,1.83
2019-01-11T15:14:19.288Z,1.87
2019-01-11T15:16:50.134Z,1.92
2019-01-11T15:19:21.032Z,1.88
2019-01-11T15:21:52.072Z,1.93
2019-01-11T15:24:23.281Z,1.92
2019-01-11T15:26:54.529Z,2.02
2019-01-11T15:29:25.642Z,1.96
2019-01-11T15:31:56.926Z,1.94
2019-01-11T15:34:27.879Z,1.87
2019-01-11T15:37:05.746Z,1.88
2019-01-11T15:39:36.595Z,1.92
2019-01-11T15:42:07.645Z,2.06
2019-01-11T15:44:38.661Z,2.10
2019-01-11T15:47:11.928Z,2.11
2019-01-11T15:50:06.898Z,2.11
2019-01-11T15:52:37.901Z,2.04
2019-01-11T15:55:14.871Z,2.04
2019-01-11T15:57:50.676Z,2.07
2019-01-11T16:00:23.928Z,2.10
2019-01-11T16:02:55.454Z,2.16
2019-01-11T16:05:26.481Z,2.23
2019-01-11T16:07:57.393Z,2.15
2019-01-11T16:10:36.197Z,2.13
2019-01-11T16:14:29.967Z,2.22
2019-01-11T16:17:20.861Z,2.20
2019-01-11T16:19:51.900Z,2.25
2019-01-11T16:22:23.027Z,2.24
2019-01-11T16:27:31.345Z,2.22
2019-01-11T16:30:02.585Z,2.29
2019-01-11T16:32:33.530Z,2.21
2019-01-11T16:35:15.627Z,2.22
2019-01-11T16:37:52.834Z,2.24
2019-01-11T16:40:23.633Z,2.25
2019-01-11T16:50:52.425Z,2.48
2019-01-11T16:53:25.879Z,2.38
2019-01-11T16:55:56.929Z,2.39
2019-01-11T16:58:30.348Z,2.32
2019-01-11T17:01:01.820Z,2.39
2019-01-11T17:03:32.709Z,2.46
2019-01-11T17:06:10.440Z,2.46
2019-01-11T17:08:45.546Z,2.43
2019-01-11T17:11:17.930Z,2.40
2019-01-11T17:13:51.854Z,2.40
2019-01-11T17:16:22.908Z,2.43
2019-01-11T17:18:56.073Z,2.48
2019-01-11T17:21:26.989Z,2.49
2019-01-11T17:23:57.917Z,2.51
2019-01-11T17:26:28.876Z,2.55
2019-01-11T17:29:00.049Z,2.58
2019-01-11T17:31:30.952Z,2.55
2019-01-11T17:34:03.207Z,2.61
2019-01-11T17:36:35.270Z,2.72
2019-01-11T17:39:10.093Z,2.66
2019-01-11T17:41:40.950Z,2.68
2019-01-11T17:44:11.821Z,2.64
2019-01-11T17:46:42.700Z,2.68
2019-01-11T17:49:13.712Z,2.80
2019-01-11T17:51:44.609Z,2.82
2019-01-11T17:54:15.597Z,2.81
2019-01-11T17:56:46.472Z,2.89
2019-01-11T17:59:17.528Z,2.91
2019-01-11T18:01:50.307Z,2.89
2019-01-11T18:04:21.487Z,2.95
2019-01-11T18:06:52.509Z,2.89
2019-01-11T18:09:23.337Z,2.88
2019-01-11T18:11:54.275Z,2.86
2019-01-11T18:14:25.364Z,2.89
2019-01-11T18:16:56.268Z,2.94
2019-01-11T18:19:27.244Z,3.03
2019-01-11T18:21:58.251Z,3.11
2019-01-11T18:24:29.255Z,3.07
2019-01-11T18:27:01.728Z,3.21
2019-01-11T18:29:37.641Z,3.25
2019-01-11T18:32:12.136Z,3.21
2019-01-11T18:34:43.501Z,3.25
2019-01-11T18:37:17.668Z,3.21
2019-01-11T18:39:48.706Z,3.30
2019-01-11T18:42:19.752Z,3.17
2019-01-11T18:44:54.477Z,3.24
2019-01-11T18:47:31.856Z,3.28
2019-01-11T18:50:00.106Z,3.36
2019-01-11T18:52:35.040Z,3.41
2019-01-11T18:55:10.244Z,3.46
2019-01-11T18:57:45.765Z,3.48
2019-01-11T19:00:25.992Z,3.36
2019-01-11T19:03:00.411Z,3.52
2019-01-11T19:05:37.601Z,3.65
2019-01-11T19:08:11.472Z,3.51
2019-01-11T19:10:44.966Z,3.51
2019-01-11T19:13:31.940Z,3.44
2019-01-11T19:15:54.014Z,3.52
2019-01-11T19:18:31.304Z,3.61
2019-01-11T19:21:27.328Z,3.69
2019-01-11T19:23:58.577Z,3.80
2019-01-11T19:26:32.722Z,3.73
2019-01-11T19:29:10.040Z,3.76
2019-01-11T19:31:44.024Z,3.86
2019-01-11T19:34:14.102Z,3.78
2019-01-11T19:36:47.115Z,3.86
2019-01-11T19:39:19.663Z,3.95
2019-01-11T19:41:52.125Z,4.09
2019-01-11T19:44:23.094Z,4.14
2019-01-11T19:47:01.901Z,4.09
2019-01-11T19:50:40.967Z,4.03
2019-01-11T19:53:12.090Z,4.03
2019-01-11T19:55:50.139Z,4.16
2019-01-11T19:58:23.300Z,4.25
2019-01-11T20:01:33.013Z,4.11
2019-01-11T20:03:55.000Z,4.12
2019-01-11T20:06:25.851Z,4.19
2019-01-11T20:08:56.702Z,4.18
2019-01-11T20:11:27.576Z,4.23
2019-01-11T20:13:58.559Z,4.34
2019-01-11T20:16:29.503Z,4.24
2019-01-11T20:19:00.343Z,4.21
2019-01-11T20:21:31.212Z,4.33
2019-01-11T20:24:02.024Z,4.47
2019-01-11T20:26:32.878Z,4.45
2019-01-11T20:29:03.711Z,4.50
2019-01-11T20:31:36.354Z,4.45
2019-01-11T20:34:07.607Z,4.53
2019-01-11T20:36:51.675Z,4.49
2019-01-11T20:39:22.919Z,4.45
2019-01-11T20:41:53.915Z,4.47
2019-01-11T20:44:25.089Z,4.60
2019-01-11T20:46:55.940Z,4.57
2019-01-11T20:49:26.884Z,4.60
2019-01-11T20:51:57.805Z,4.73
2019-01-11T20:54:28.677Z,4.71
2019-01-11T20:56:59.518Z,4.67
2019-01-11T20:59:30.355Z,4.66
2019-01-11T21:02:01.373Z,4.70
2019-01-11T21:04:32.250Z,4.73
2019-01-11T21:07:03.136Z,4.65
2019-01-11T21:09:33.983Z,4.67
2019-01-11T21:12:05.221Z,4.68
2019-01-11T21:14:36.193Z,4.85
2019-01-11T21:17:07.175Z,4.80
2019-01-11T21:19:38.283Z,4.73
2019-01-11T21:22:09.728Z,4.88
2019-01-11T21:24:40.763Z,4.81
2019-01-11T21:27:12.124Z,4.78
2019-01-11T21:29:43.201Z,4.75
2019-01-11T21:32:14.352Z,4.98
2019-01-11T21:34:45.447Z,4.94
2019-01-11T21:37:16.504Z,5.08
2019-01-11T21:39:47.929Z,5.17
2019-01-11T21:42:19.265Z,5.12
2019-01-11T21:44:50.381Z,5.11
2019-01-11T21:47:21.527Z,5.21
2019-01-11T21:49:52.386Z,5.14
2019-01-11T21:52:23.375Z,5.23
2019-01-11T21:54:54.185Z,5.19
2019-01-11T21:57:25.207Z,5.11
2019-01-11T21:59:58.399Z,5.19
2019-01-11T22:02:28.827Z,5.16
2019-01-11T22:04:59.851Z,5.20
2019-01-11T22:07:30.799Z,5.30
2019-01-11T22:10:01.795Z,5.26
2019-01-11T22:12:32.674Z,5.37
2019-01-11T22:15:03.615Z,5.36
2019-01-11T22:17:34.455Z,5.36
2019-01-11T22:20:07.571Z,5.31
2019-01-11T22:22:38.594Z,5.27
2019-01-11T22:25:10.854Z,5.30
2019-01-11T22:27:42.043Z,5.25
2019-01-11T22:30:20.146Z,5.24
2019-01-11T22:32:51.187Z,5.32
2019-01-11T22:35:22.309Z,5.30
2019-01-11T22:37:53.443Z,5.29
2019-01-11T22:40:25.378Z,5.27
2019-01-11T22:42:59.336Z,5.26
2019-01-11T22:45:30.238Z,5.36
2019-01-11T22:48:01.409Z,5.40
2019-01-11T22:50:32.634Z,5.33
2019-01-11T22:53:04.094Z,5.32
2019-01-11T22:55:35.358Z,5.25
2019-01-11T22:58:07.015Z,5.33
2019-01-11T23:01:30.004Z,5.31
2019-01-11T23:04:01.910Z,5.34
2019-01-11T23:07:06.213Z,5.33
2019-01-11T23:09:50.408Z,5.37
2019-01-11T23:12:38.608Z,5.28
2019-01-11T23:15:37.202Z,5.33
2019-01-11T23:18:24.049Z,5.33
2019-01-11T23:21:02.456Z,5.35
2019-01-11T23:23:33.494Z,5.36
2019-01-11T23:26:04.470Z,5.33
2019-01-11T23:28:35.670Z,5.28
2019-01-11T23:31:06.678Z,5.25
2019-01-11T23:33:37.785Z,5.31
2019-01-11T23:36:08.990Z,5.36
2019-01-11T23:38:40.659Z,5.24
2019-01-11T23:41:11.959Z,5.26
2019-01-11T23:43:42.852Z,5.23
2019-01-11T23:46:13.940Z,5.28
2019-01-11T23:48:44.858Z,5.35
2019-01-11T23:51:15.938Z,5.33
2019-01-11T23:53:47.370Z,5.37
2019-01-11T23:56:18.545Z,5.31
2019-01-11T23:58:49.620Z,5.33
